Time,TemperatureF,DewpointF,PressureIn,WindDirection,WindDirectionDegrees,WindSpeedMPH,WindSpeedGustMPH,Humidity,HourlyPrecipIn,Conditions,Clouds,dailyrainin,SolarRadiationWatts/m^2,SoftwareType,DateUTC
2013-06-27 00:01:00,66.1,64.3,29.73,WNW,300,0.0,2.0,94,0.00,,,0.00,0.00,VWS V14.00,2013-06-27 04:01:00,
2013-06-27 00:02:00,66.1,64.3,29.73,WNW,299,0.0,1.0,94,0.00,,,0.00,0.00,VWS V14.00,2013-06-27 04:02:00,
2013-06-27 00:07:00,66.0,64.2,29.73,WNW,294,0.0,2.0,94,0.00,,,0.00,0.00,VWS V14.00,2013-06-27 04:07:00,
2013-06-27 00:12:00,66.0,64.2,29.73,WNW,294,0.0,3.0,94,0.00,,,0.00,0.00,VWS V14.00,2013-06-27 04:12:00,
2013-06-27 00:17:00,66.1,64.3,29.73,WNW,294,0.0,2.0,94,0.00,,,0.00,0.00,VWS V14.00,2013-06-27 04:17:00,
2013-06-27 00:22:00,66.2,64.4,29.73,WNW,294,0.0,0.0,94,0.00,,,0.00,0.00,VWS V14.00,2013-06-27 04:22:00,
2013-06-27 00:27:00,66.4,64.6,29.73,WNW,294,0.0,0.0,94,0.00,,,0.00,0.00,VWS V14.00,2013-06-27 04:27:00,
2013-06-27 00:32:00,66.3,64.5,29.73,WNW,294,0.0,1.0,94,0.00,,,0.00,0.00,VWS V14.00,2013-06-27 04:32:00,
2013-06-27 00:37:00,66.3,64.5,29.73,WNW,294,0.0,1.0,94,0.00,,,0.00,0.00,VWS V14.00,2013-06-27 04:37:00,
2013-06-27 00:42:00,66.5,64.7,29.73,WNW,294,0.0,3.0,94,0.00,,,0.00,0.00,VWS V14.00,2013-06-27 04:42:00,
2013-06-27 00:47:00,66.5,64.7,29.73,WNW,294,0.0,2.0,94,0.00,,,0.00,0.00,VWS V14.00,2013-06-27 04:47:00,
2013-06-27 00:52:00,66.4,64.6,29.73,WNW,294,0.0,0.0,94,0.00,,,0.00,0.00,VWS V14.00,2013-06-27 04:52:00,
2013-06-27 00:57:00,66.4,64.6,29.73,WNW,294,0.0,0.0,94,0.00,,,0.00,0.00,VWS V14.00,2013-06-27 04:57:00,
2013-06-27 01:02:00,66.4,64.6,29.73,WNW,294,0.0,2.0,94,0.00,,,0.00,0.00,VWS V14.00,2013-06-27 05:02:00,
2013-06-27 01:07:00,66.3,64.5,29.73,WNW,294,0.0,1.0,94,0.00,,,0.00,0.00,VWS V14.00,2013-06-27 05:07:00,
2013-06-27 01:12:00,66.3,64.5,29.73,WNW,294,0.0,1.0,94,0.00,,,0.00,0.00,VWS V14.00,2013-06-27 05:12:00,
2013-06-27 01:17:00,66.2,64.4,29.73,WNW,294,0.0,0.0,94,0.00,,,0.00,0.00,VWS V14.00,2013-06-27 05:17:00,
2013-06-27 01:22:00,66.1,64.3,29.73,WNW,293,0.0,1.0,94,0.00,,,0.00,0.00,VWS V14.00,2013-06-27 05:22:00,
2013-06-27 01:27:00,66.0,64.2,29.73,WNW,294,0.0,0.0,94,0.00,,,0.00,0.00,VWS V14.00,2013-06-27 05:27:00,
2013-06-27 01:32:00,65.9,64.1,29.73,WNW,294,0.0,1.0,94,0.00,,,0.00,0.00,VWS V14.00,2013-06-27 05:32:00,
2013-06-27 01:38:00,65.9,64.1,29.73,WNW,294,0.0,2.0,94,0.00,,,0.00,0.00,VWS V14.00,2013-06-27 05:38:00,
2013-06-27 01:43:00,65.8,64.0,29.72,WNW,294,0.0,0.0,94,0.00,,,0.00,0.00,VWS V14.00,2013-06-27 05:43:00,
2013-06-27 01:48:00,65.7,63.9,29.72,WNW,294,0.0,0.0,94,0.00,,,0.00,0.00,VWS V14.00,2013-06-27 05:48:00,
2013-06-27 01:53:00,65.7,63.9,29.72,WNW,294,0.0,3.0,94,0.00,,,0.00,0.00,VWS V14.00,2013-06-27 05:53:00,
2013-06-27 01:58:00,65.6,63.8,29.72,WNW,294,0.0,0.0,94,0.00,,,0.00,0.00,VWS V14.00,2013-06-27 05:58:00,
2013-06-27 02:03:00,65.5,63.7,29.72,WNW,294,0.0,0.0,94,0.00,,,0.00,0.00,VWS V14.00,2013-06-27 06:03:00,
2013-06-27 02:08:00,65.4,63.6,29.73,WNW,294,0.0,1.0,94,0.00,,,0.00,0.00,VWS V14.00,2013-06-27 06:08:00,
2013-06-27 02:13:00,65.2,63.4,29.73,WNW,294,0.0,1.0,94,0.00,,,0.00,0.00,VWS V14.00,2013-06-27 06:13:00,
2013-06-27 02:18:00,65.1,63.3,29.73,WNW,294,0.0,0.0,94,0.00,,,0.00,0.00,VWS V14.00,2013-06-27 06:18:00,
2013-06-27 02:23:00,65.1,63.3,29.72,WNW,294,0.0,1.0,94,0.00,,,0.00,0.00,VWS V14.00,2013-06-27 06:23:00,
2013-06-27 02:28:00,65.0,63.5,29.72,WNW,294,0.0,1.0,95,0.00,,,0.00,0.00,VWS V14.00,2013-06-27 06:28:00,
2013-06-27 02:33:00,65.0,63.5,29.72,WNW,294,0.0,0.0,95,0.00,,,0.00,0.00,VWS V14.00,2013-06-27 06:33:00,
2013-06-27 02:38:00,65.0,63.5,29.72,WNW,294,0.0,0.0,95,0.00,,,0.00,0.00,VWS V14.00,2013-06-27 06:38:00,
2013-06-27 02:43:00,65.0,63.5,29.72,WNW,294,0.0,0.0,95,0.00,,,0.00,0.00,VWS V14.00,2013-06-27 06:43:00,
2013-06-27 02:48:00,65.0,63.5,29.71,WNW,293,0.0,1.0,95,0.00,,,0.00,0.00,VWS V14.00,2013-06-27 06:48:00,
2013-06-27 02:53:00,65.0,63.5,29.72,WNW,294,0.0,1.0,95,0.00,,,0.00,0.00,VWS V14.00,2013-06-27 06:53:00,
2013-06-27 02:58:00,64.9,63.4,29.72,WNW,294,0.0,0.0,95,0.00,,,0.00,0.00,VWS V14.00,2013-06-27 06:58:00,
2013-06-27 03:03:00,64.8,63.3,29.72,WNW,294,0.0,0.0,95,0.00,,,0.00,0.00,VWS V14.00,2013-06-27 07:03:00,
2013-06-27 03:08:00,64.7,63.2,29.71,WNW,294,0.0,0.0,95,0.00,,,0.00,0.00,VWS V14.00,2013-06-27 07:08:00,
2013-06-27 03:13:00,64.6,62.8,29.72,WNW,294,2.0,3.0,94,0.00,,,0.00,0.00,VWS V14.00,2013-06-27 07:13:00,
2013-06-27 03:18:00,64.5,62.7,29.71,WNW,295,0.0,2.0,94,0.00,,,0.00,0.00,VWS V14.00,2013-06-27 07:18:00,
2013-06-27 03:23:00,64.4,62.6,29.71,WNW,295,0.0,0.0,94,0.00,,,0.00,0.00,VWS V14.00,2013-06-27 07:23:00,
2013-06-27 03:28:00,64.3,62.8,29.72,WNW,294,0.0,1.0,95,0.00,,,0.00,0.00,VWS V14.00,2013-06-27 07:28:00,
2013-06-27 03:33:00,64.2,62.7,29.71,WNW,295,0.0,0.0,95,0.00,,,0.00,0.00,VWS V14.00,2013-06-27 07:33:00,
2013-06-27 03:38:00,64.1,62.6,29.71,WNW,290,0.0,5.0,95,0.00,,,0.00,0.00,VWS V14.00,2013-06-27 07:38:00,
2013-06-27 03:43:00,64.0,62.5,29.72,WNW,287,0.0,6.0,95,0.00,,,0.00,0.00,VWS V14.00,2013-06-27 07:43:00,
2013-06-27 03:48:00,64.1,62.6,29.71,WNW,287,3.0,6.0,95,0.00,,,0.00,0.00,VWS V14.00,2013-06-27 07:48:00,
2013-06-27 03:53:00,64.3,62.8,29.72,West,269,4.0,4.0,95,0.00,,,0.00,0.00,VWS V14.00,2013-06-27 07:53:00,
2013-06-27 03:58:00,64.5,63.0,29.72,WNW,286,0.0,4.0,95,0.00,,,0.00,0.00,VWS V14.00,2013-06-27 07:58:00,
2013-06-27 04:03:00,64.7,63.2,29.72,West,265,0.0,5.0,95,0.00,,,0.00,0.00,VWS V14.00,2013-06-27 08:03:00,
2013-06-27 04:08:00,64.8,63.3,29.72,West,266,0.0,2.0,95,0.00,,,0.00,0.00,VWS V14.00,2013-06-27 08:08:00,
2013-06-27 04:13:00,64.9,63.4,29.72,WNW,290,2.0,3.0,95,0.00,,,0.00,0.00,VWS V14.00,2013-06-27 08:13:00,
2013-06-27 04:18:00,65.1,63.6,29.72,WNW,290,0.0,6.0,95,0.00,,,0.00,0.00,VWS V14.00,2013-06-27 08:18:00,
2013-06-27 04:23:00,65.2,63.7,29.72,NW,307,0.0,6.0,95,0.00,,,0.00,0.00,VWS V14.00,2013-06-27 08:23:00,
2013-06-27 04:28:00,65.2,63.7,29.72,NW,324,0.0,4.0,95,0.00,,,0.00,0.00,VWS V14.00,2013-06-27 08:28:00,
2013-06-27 04:33:00,65.2,63.7,29.73,NW,323,0.0,3.0,95,0.00,,,0.00,0.00,VWS V14.00,2013-06-27 08:33:00,
2013-06-27 04:38:00,65.2,63.7,29.72,NW,319,0.0,2.0,95,0.00,,,0.00,0.00,VWS V14.00,2013-06-27 08:38:00,
2013-06-27 04:43:00,65.2,63.7,29.72,NW,310,0.0,3.0,95,0.00,,,0.00,0.00,VWS V14.00,2013-06-27 08:43:00,
2013-06-27 04:48:00,65.2,63.7,29.73,WNW,298,0.0,3.0,95,0.00,,,0.00,0.00,VWS V14.00,2013-06-27 08:48:00,
2013-06-27 04:53:00,65.1,63.6,29.72,WNW,298,0.0,0.0,95,0.00,,,0.00,0.00,VWS V14.00,2013-06-27 08:53:00,
2013-06-27 04:59:00,65.1,63.6,29.73,WNW,297,0.0,1.0,95,0.00,,,0.00,0.00,VWS V14.00,2013-06-27 08:59:00,
2013-06-27 05:04:00,65.0,63.5,29.73,WNW,297,0.0,0.0,95,0.00,,,0.00,0.00,VWS V14.00,2013-06-27 09:04:00,
2013-06-27 05:09:00,64.9,63.4,29.73,WNW,298,0.0,2.0,95,0.00,,,0.00,0.00,VWS V14.00,2013-06-27 09:09:00,
2013-06-27 05:14:00,64.8,63.3,29.73,WNW,298,0.0,2.0,95,0.00,,,0.00,0.00,VWS V14.00,2013-06-27 09:14:00,
2013-06-27 05:19:00,64.7,63.2,29.73,WNW,298,0.0,0.0,95,0.00,,,0.00,5.00,VWS V14.00,2013-06-27 09:19:00,
2013-06-27 05:24:00,64.5,63.0,29.73,WNW,298,0.0,1.0,95,0.00,,,0.00,7.00,VWS V14.00,2013-06-27 09:24:00,
2013-06-27 05:29:00,64.4,62.9,29.73,WNW,298,0.0,2.0,95,0.00,,,0.00,9.00,VWS V14.00,2013-06-27 09:29:00,
2013-06-27 05:34:00,64.3,62.8,29.73,WNW,298,0.0,1.0,95,0.00,,,0.00,11.00,VWS V14.00,2013-06-27 09:34:00,
2013-06-27 05:39:00,64.1,62.6,29.74,WNW,298,0.0,1.0,95,0.00,,,0.00,14.00,VWS V14.00,2013-06-27 09:39:00,
2013-06-27 05:44:00,63.9,62.4,29.73,WNW,298,0.0,0.0,95,0.00,,,0.00,19.00,VWS V14.00,2013-06-27 09:44:00,
2013-06-27 05:49:00,63.8,62.3,29.73,WNW,298,0.0,0.0,95,0.00,,,0.00,25.00,VWS V14.00,2013-06-27 09:49:00,
2013-06-27 05:54:00,63.8,62.3,29.73,WNW,298,0.0,0.0,95,0.00,,,0.00,30.00,VWS V14.00,2013-06-27 09:54:00,
2013-06-27 05:59:00,63.7,62.2,29.73,WNW,298,0.0,0.0,95,0.00,,,0.00,33.00,VWS V14.00,2013-06-27 09:59:00,
2013-06-27 06:04:00,63.6,62.2,29.73,WNW,298,0.0,1.0,95,0.00,,,0.00,35.00,VWS V14.00,2013-06-27 10:04:00,
2013-06-27 06:09:00,63.6,62.2,29.74,WNW,298,0.0,0.0,95,0.00,,,0.00,35.00,VWS V14.00,2013-06-27 10:09:00,
2013-06-27 06:14:00,63.6,62.2,29.74,WNW,298,0.0,0.0,95,0.01,,,0.01,37.00,VWS V14.00,2013-06-27 10:14:00,
2013-06-27 06:19:00,63.6,62.2,29.74,WNW,297,0.0,0.0,95,0.01,,,0.01,32.00,VWS V14.00,2013-06-27 10:19:00,
2013-06-27 06:24:00,63.8,62.3,29.75,WNW,297,0.0,0.0,95,0.01,,,0.01,37.00,VWS V14.00,2013-06-27 10:24:00,
2013-06-27 06:29:00,63.9,62.4,29.75,WNW,298,0.0,0.0,95,0.01,,,0.01,46.00,VWS V14.00,2013-06-27 10:29:00,
2013-06-27 06:34:00,64.0,62.5,29.74,WNW,298,0.0,0.0,95,0.01,,,0.01,51.00,VWS V14.00,2013-06-27 10:34:00,
2013-06-27 06:39:00,64.1,62.6,29.74,WNW,298,0.0,0.0,95,0.01,,,0.01,54.00,VWS V14.00,2013-06-27 10:39:00,
2013-06-27 06:44:00,64.2,62.7,29.74,WNW,298,0.0,1.0,95,0.01,,,0.01,49.00,VWS V14.00,2013-06-27 10:44:00,
2013-06-27 06:49:00,64.5,63.3,29.74,WNW,298,0.0,2.0,96,0.01,,,0.01,53.00,VWS V14.00,2013-06-27 10:49:00,
2013-06-27 06:54:00,64.7,63.2,29.74,WNW,298,0.0,2.0,95,0.01,,,0.01,63.00,VWS V14.00,2013-06-27 10:54:00,
2013-06-27 06:59:00,64.8,63.3,29.74,WNW,298,0.0,0.0,95,0.01,,,0.01,67.00,VWS V14.00,2013-06-27 10:59:00,
2013-06-27 07:04:00,65.0,63.8,29.74,WNW,298,0.0,1.0,96,0.01,,,0.01,65.00,VWS V14.00,2013-06-27 11:04:00,
2013-06-27 07:09:00,65.1,63.9,29.74,WNW,298,0.0,1.0,96,0.01,,,0.01,69.00,VWS V14.00,2013-06-27 11:09:00,
2013-06-27 07:14:00,65.4,63.9,29.74,WNW,298,0.0,1.0,95,0.01,,,0.01,76.00,VWS V14.00,2013-06-27 11:14:00,
2013-06-27 07:19:00,65.6,64.4,29.74,WNW,298,0.0,0.0,96,0.00,,,0.01,86.00,VWS V14.00,2013-06-27 11:19:00,
2013-06-27 07:24:00,65.8,64.6,29.74,WNW,298,0.0,1.0,96,0.00,,,0.01,90.00,VWS V14.00,2013-06-27 11:24:00,
2013-06-27 07:29:00,66.0,64.8,29.73,WNW,298,0.0,1.0,96,0.00,,,0.01,95.00,VWS V14.00,2013-06-27 11:29:00,
2013-06-27 07:34:00,66.1,64.9,29.73,WNW,298,0.0,0.0,96,0.00,,,0.01,134.00,VWS V14.00,2013-06-27 11:34:00,
2013-06-27 07:39:00,66.4,65.2,29.73,WNW,298,0.0,0.0,96,0.00,,,0.01,100.00,VWS V14.00,2013-06-27 11:39:00,
2013-06-27 07:44:00,66.7,65.5,29.73,WNW,298,0.0,0.0,96,0.00,,,0.01,160.00,VWS V14.00,2013-06-27 11:44:00,
2013-06-27 07:49:00,66.9,65.7,29.73,WNW,298,0.0,0.0,96,0.00,,,0.01,105.00,VWS V14.00,2013-06-27 11:49:00,
2013-06-27 07:54:00,67.1,65.9,29.73,WNW,298,0.0,0.0,96,0.00,,,0.01,91.00,VWS V14.00,2013-06-27 11:54:00,
2013-06-27 07:59:00,67.4,66.2,29.73,WNW,298,0.0,1.0,96,0.00,,,0.01,178.00,VWS V14.00,2013-06-27 11:59:00,
2013-06-27 08:04:00,67.8,66.6,29.73,WNW,298,0.0,1.0,96,0.00,,,0.01,366.00,VWS V14.00,2013-06-27 12:04:00,
2013-06-27 08:09:00,68.1,66.9,29.73,WNW,298,0.0,1.0,96,0.00,,,0.01,383.00,VWS V14.00,2013-06-27 12:09:00,
2013-06-27 08:14:00,68.4,67.2,29.73,WNW,298,0.0,0.0,96,0.00,,,0.01,396.00,VWS V14.00,2013-06-27 12:14:00,
2013-06-27 08:19:00,68.7,67.5,29.73,WNW,298,0.0,0.0,96,0.00,,,0.01,415.00,VWS V14.00,2013-06-27 12:19:00,
2013-06-27 08:24:00,68.9,67.7,29.73,WNW,298,1.0,1.0,96,0.00,,,0.01,404.00,VWS V14.00,2013-06-27 12:24:00,
2013-06-27 08:29:00,69.2,68.0,29.73,WNW,298,0.0,1.0,96,0.00,,,0.01,446.00,VWS V14.00,2013-06-27 12:29:00,
2013-06-27 08:34:00,69.8,68.6,29.73,SW,216,1.0,2.0,96,0.00,,,0.01,452.00,VWS V14.00,2013-06-27 12:34:00,
2013-06-27 08:39:00,70.4,69.2,29.73,SE,145,0.0,3.0,96,0.00,,,0.01,422.00,VWS V14.00,2013-06-27 12:39:00,
2013-06-27 08:44:00,70.8,69.6,29.73,SE,142,0.0,2.0,96,0.00,,,0.01,504.00,VWS V14.00,2013-06-27 12:44:00,
2013-06-27 08:49:00,71.1,69.9,29.73,SSE,154,3.0,4.0,96,0.00,,,0.01,519.00,VWS V14.00,2013-06-27 12:49:00,
2013-06-27 08:54:00,71.5,70.3,29.73,SE,135,0.0,1.0,96,0.00,,,0.01,548.00,VWS V14.00,2013-06-27 12:54:00,
2013-06-27 08:59:00,71.7,70.5,29.73,SSE,158,0.0,2.0,96,0.00,,,0.01,561.00,VWS V14.00,2013-06-27 12:59:00,
2013-06-27 09:04:00,71.7,70.2,29.73,SSE,155,0.0,3.0,95,0.00,,,0.01,571.00,VWS V14.00,2013-06-27 13:04:00,
2013-06-27 09:09:00,72.0,70.5,29.74,SSE,168,0.0,3.0,95,0.00,,,0.01,587.00,VWS V14.00,2013-06-27 13:09:00,
2013-06-27 09:14:00,72.3,70.8,29.74,SSE,168,0.0,2.0,95,0.00,,,0.01,603.00,VWS V14.00,2013-06-27 13:14:00,
2013-06-27 09:19:00,72.9,71.1,29.73,South,177,3.0,3.0,94,0.00,,,0.01,626.00,VWS V14.00,2013-06-27 13:19:00,
2013-06-27 09:24:00,73.2,71.4,29.73,South,177,0.0,3.0,94,0.00,,,0.01,633.00,VWS V14.00,2013-06-27 13:24:00,
2013-06-27 09:29:00,73.7,71.2,29.73,South,177,0.0,1.0,92,0.00,,,0.01,636.00,VWS V14.00,2013-06-27 13:29:00,
2013-06-27 09:34:00,74.2,71.7,29.73,South,171,0.0,2.0,92,0.00,,,0.01,677.00,VWS V14.00,2013-06-27 13:34:00,
2013-06-27 09:39:00,74.7,71.9,29.73,South,169,0.0,2.0,91,0.00,,,0.01,622.00,VWS V14.00,2013-06-27 13:39:00,
2013-06-27 09:44:00,75.1,72.0,29.73,SSE,164,2.0,2.0,90,0.00,,,0.01,700.00,VWS V14.00,2013-06-27 13:44:00,
2013-06-27 09:50:00,75.7,72.2,29.74,SSE,150,0.0,3.0,89,0.00,,,0.01,663.00,VWS V14.00,2013-06-27 13:50:00,
2013-06-27 09:55:00,76.0,72.2,29.73,SSW,192,0.0,4.0,88,0.00,,,0.01,631.00,VWS V14.00,2013-06-27 13:55:00,
2013-06-27 10:00:00,76.4,72.2,29.73,SSE,165,0.0,3.0,87,0.00,,,0.01,643.00,VWS V14.00,2013-06-27 14:00:00,
2013-06-27 10:05:00,76.9,72.4,29.73,SSE,150,4.0,4.0,86,0.00,,,0.01,643.00,VWS V14.00,2013-06-27 14:05:00,
2013-06-27 10:10:00,77.1,72.2,29.73,SE,130,0.0,4.0,85,0.00,,,0.01,629.00,VWS V14.00,2013-06-27 14:10:00,
2013-06-27 10:15:00,77.5,72.3,29.73,SE,137,1.0,3.0,84,0.00,,,0.01,715.00,VWS V14.00,2013-06-27 14:15:00,
2013-06-27 10:20:00,77.7,72.1,29.73,SSE,157,0.0,3.0,83,0.00,,,0.01,724.00,VWS V14.00,2013-06-27 14:20:00,
2013-06-27 10:25:00,78.1,72.5,29.73,SSE,158,0.0,2.0,83,0.00,,,0.01,624.00,VWS V14.00,2013-06-27 14:25:00,
2013-06-27 10:30:00,78.4,72.4,29.73,SSE,159,2.0,3.0,82,0.00,,,0.01,708.00,VWS V14.00,2013-06-27 14:30:00,
2013-06-27 10:35:00,78.6,72.7,29.72,ESE,123,0.0,4.0,82,0.00,,,0.01,742.00,VWS V14.00,2013-06-27 14:35:00,
2013-06-27 10:40:00,78.9,72.6,29.72,SSE,152,0.0,4.0,81,0.00,,,0.01,802.00,VWS V14.00,2013-06-27 14:40:00,
2013-06-27 10:45:00,79.2,72.9,29.72,SSE,163,3.0,4.0,81,0.00,,,0.01,800.00,VWS V14.00,2013-06-27 14:45:00,
2013-06-27 10:50:00,79.5,73.2,29.72,South,179,0.0,3.0,81,0.00,,,0.01,807.00,VWS V14.00,2013-06-27 14:50:00,
2013-06-27 10:55:00,79.6,72.5,29.72,SSE,164,0.0,5.0,79,0.00,,,0.01,807.00,VWS V14.00,2013-06-27 14:55:00,
2013-06-27 11:00:00,79.7,72.6,29.72,SSE,157,1.0,4.0,79,0.00,,,0.01,826.00,VWS V14.00,2013-06-27 15:00:00,
2013-06-27 11:05:00,79.7,72.6,29.72,SSE,156,3.0,3.0,79,0.00,,,0.01,738.00,VWS V14.00,2013-06-27 15:05:00,
2013-06-27 11:10:00,79.6,72.1,29.72,SSE,166,3.0,4.0,78,0.00,,,0.01,863.00,VWS V14.00,2013-06-27 15:10:00,
2013-06-27 11:15:00,79.5,72.0,29.72,SE,129,0.0,5.0,78,0.00,,,0.01,796.00,VWS V14.00,2013-06-27 15:15:00,
2013-06-27 11:20:00,79.5,72.0,29.72,SSE,160,0.0,5.0,78,0.00,,,0.01,1025.00,VWS V14.00,2013-06-27 15:20:00,
2013-06-27 11:25:00,79.5,71.7,29.71,South,170,1.0,3.0,77,0.00,,,0.01,650.00,VWS V14.00,2013-06-27 15:25:00,
2013-06-27 11:30:00,79.3,71.1,29.71,ESE,113,0.0,5.0,76,0.00,,,0.01,499.00,VWS V14.00,2013-06-27 15:30:00,
2013-06-27 11:35:00,79.1,70.9,29.71,SSE,165,1.0,3.0,76,0.00,,,0.01,504.00,VWS V14.00,2013-06-27 15:35:00,
2013-06-27 11:40:00,79.2,71.4,29.71,SSE,162,1.0,4.0,77,0.00,,,0.01,923.00,VWS V14.00,2013-06-27 15:40:00,
2013-06-27 11:45:00,79.4,71.2,29.71,ESE,115,1.0,4.0,76,0.00,,,0.01,677.00,VWS V14.00,2013-06-27 15:45:00,
2013-06-27 11:50:00,79.8,72.3,29.71,South,178,0.0,4.0,78,0.00,,,0.01,1185.00,VWS V14.00,2013-06-27 15:50:00,
2013-06-27 11:51:00,79.9,72.1,29.71,South,173,1.0,3.0,77,0.00,,,0.01,1176.00,VWS V14.00,2013-06-27 15:51:00,
2013-06-27 11:56:00,80.4,72.5,29.71,South,175,0.0,4.0,77,0.00,,,0.01,977.00,VWS V14.00,2013-06-27 15:56:00,
2013-06-27 12:01:00,81.1,73.2,29.71,SSE,165,4.0,4.0,77,0.00,,,0.01,972.00,VWS V14.00,2013-06-27 16:01:00,
2013-06-27 12:06:00,81.2,72.1,29.71,East,98,1.0,6.0,74,0.00,,,0.01,863.00,VWS V14.00,2013-06-27 16:06:00,
2013-06-27 12:11:00,81.1,71.2,29.71,South,188,3.0,5.0,72,0.00,,,0.01,1016.00,VWS V14.00,2013-06-27 16:11:00,
2013-06-27 12:16:00,81.3,72.6,29.70,South,186,2.0,2.0,75,0.00,,,0.01,1016.00,VWS V14.00,2013-06-27 16:16:00,
2013-06-27 12:21:00,81.1,70.8,29.70,South,170,1.0,4.0,71,0.00,,,0.01,311.00,VWS V14.00,2013-06-27 16:21:00,
2013-06-27 12:26:00,80.7,70.8,29.70,SSE,164,0.0,1.0,72,0.00,,,0.01,290.00,VWS V14.00,2013-06-27 16:26:00,
2013-06-27 12:31:00,80.0,69.8,29.70,South,178,0.0,2.0,71,0.00,,,0.01,338.00,VWS V14.00,2013-06-27 16:31:00,
2013-06-27 12:36:00,79.7,70.3,29.70,SSE,161,0.0,1.0,73,0.00,,,0.01,281.00,VWS V14.00,2013-06-27 16:36:00,
2013-06-27 12:41:00,79.3,70.3,29.70,SSE,167,0.0,0.0,74,0.00,,,0.01,279.00,VWS V14.00,2013-06-27 16:41:00,
2013-06-27 12:46:00,79.0,70.4,29.70,SSE,156,0.0,2.0,75,0.00,,,0.01,334.00,VWS V14.00,2013-06-27 16:46:00,
2013-06-27 12:51:00,78.9,71.1,29.70,South,175,0.0,0.0,77,0.00,,,0.01,489.00,VWS V14.00,2013-06-27 16:51:00,
2013-06-27 12:57:00,78.9,70.7,29.70,SSE,166,2.0,2.0,76,0.00,,,0.01,322.00,VWS V14.00,2013-06-27 16:57:00,
2013-06-27 13:01:00,78.6,70.4,29.70,South,170,1.0,3.0,76,0.00,,,0.01,279.00,VWS V14.00,2013-06-27 17:01:00,
2013-06-27 13:06:00,78.4,70.2,29.69,SSE,159,0.0,1.0,76,0.00,,,0.01,325.00,VWS V14.00,2013-06-27 17:06:00,
2013-06-27 13:12:00,78.4,70.6,29.69,SSE,153,0.0,0.0,77,0.00,,,0.01,487.00,VWS V14.00,2013-06-27 17:12:00,
2013-06-27 13:17:00,78.8,70.6,29.70,SSE,167,0.0,1.0,76,0.00,,,0.01,346.00,VWS V14.00,2013-06-27 17:17:00,
2013-06-27 13:22:00,78.9,70.3,29.69,SSE,152,0.0,1.0,75,0.00,,,0.01,352.00,VWS V14.00,2013-06-27 17:22:00,
2013-06-27 13:27:00,79.2,71.0,29.69,South,169,2.0,3.0,76,0.00,,,0.01,571.00,VWS V14.00,2013-06-27 17:27:00,
2013-06-27 13:32:00,79.6,71.0,29.69,South,175,1.0,4.0,75,0.00,,,0.01,947.00,VWS V14.00,2013-06-27 17:32:00,
2013-06-27 13:37:00,79.8,70.8,29.69,SE,130,0.0,1.0,74,0.00,,,0.01,253.00,VWS V14.00,2013-06-27 17:37:00,
2013-06-27 13:42:00,79.6,70.2,29.69,SE,127,0.0,3.0,73,0.00,,,0.01,172.00,VWS V14.00,2013-06-27 17:42:00,
2013-06-27 13:47:00,79.3,69.9,29.69,South,178,0.0,2.0,73,0.00,,,0.01,186.00,VWS V14.00,2013-06-27 17:47:00,
2013-06-27 13:52:00,79.1,70.5,29.69,ESE,119,1.0,1.0,75,0.00,,,0.01,169.00,VWS V14.00,2013-06-27 17:52:00,
2013-06-27 13:57:00,78.8,70.6,29.68,ESE,115,0.0,1.0,76,0.00,,,0.01,178.00,VWS V14.00,2013-06-27 17:57:00,
2013-06-27 14:02:00,78.5,70.3,29.68,NE,49,1.0,2.0,76,0.00,,,0.01,132.00,VWS V14.00,2013-06-27 18:02:00,
2013-06-27 14:07:00,78.3,70.5,29.69,NNE,28,2.0,5.0,77,0.00,,,0.01,104.00,VWS V14.00,2013-06-27 18:07:00,
2013-06-27 14:12:00,77.6,69.4,29.68,NNE,17,6.0,8.0,76,0.00,,,0.01,98.00,VWS V14.00,2013-06-27 18:12:00,
2013-06-27 14:17:00,77.0,69.2,29.68,North,9,0.0,1.0,77,0.00,,,0.01,144.00,VWS V14.00,2013-06-27 18:17:00,
2013-06-27 14:22:00,76.6,69.6,29.68,NNE,20,0.0,0.0,79,0.00,,,0.01,142.00,VWS V14.00,2013-06-27 18:22:00,
2013-06-27 14:27:00,76.2,69.6,29.68,NNE,12,0.0,1.0,80,0.00,,,0.01,221.00,VWS V14.00,2013-06-27 18:27:00,
2013-06-27 14:32:00,75.8,69.6,29.69,North,360,0.0,3.0,81,0.00,,,0.01,169.00,VWS V14.00,2013-06-27 18:32:00,
2013-06-27 14:37:00,75.3,69.4,29.68,North,355,0.0,1.0,82,0.00,,,0.01,227.00,VWS V14.00,2013-06-27 18:37:00,
2013-06-27 14:42:00,75.2,69.7,29.67,North,355,0.0,1.0,83,0.00,,,0.01,341.00,VWS V14.00,2013-06-27 18:42:00,
2013-06-27 14:47:00,75.6,70.4,29.67,North,10,3.0,3.0,84,0.00,,,0.01,679.00,VWS V14.00,2013-06-27 18:47:00,
2013-06-27 14:52:00,76.1,70.2,29.67,NNE,15,0.0,3.0,82,0.00,,,0.01,768.00,VWS V14.00,2013-06-27 18:52:00,
2013-06-27 14:57:00,76.6,70.7,29.67,North,355,1.0,3.0,82,0.00,,,0.01,826.00,VWS V14.00,2013-06-27 18:57:00,
2013-06-27 15:02:00,77.6,70.6,29.67,North,355,2.0,2.0,79,0.00,,,0.01,705.00,VWS V14.00,2013-06-27 19:02:00,
2013-06-27 15:07:00,78.9,72.2,29.67,North,355,0.0,1.0,80,0.00,,,0.01,719.00,VWS V14.00,2013-06-27 19:07:00,
2013-06-27 15:12:00,79.6,71.8,29.67,North,355,0.0,0.0,77,0.00,,,0.01,371.00,VWS V14.00,2013-06-27 19:12:00,
2013-06-27 15:17:00,80.6,73.1,29.67,North,355,0.0,1.0,78,0.00,,,0.01,601.00,VWS V14.00,2013-06-27 19:17:00,
2013-06-27 15:22:00,81.1,72.4,29.66,NE,40,0.0,0.0,75,0.00,,,0.01,533.00,VWS V14.00,2013-06-27 19:22:00,
2013-06-27 15:27:00,81.6,72.9,29.66,NE,42,0.0,2.0,75,0.00,,,0.01,554.00,VWS V14.00,2013-06-27 19:27:00,
2013-06-27 15:32:00,81.8,73.1,29.66,East,80,0.0,2.0,75,0.00,,,0.01,564.00,VWS V14.00,2013-06-27 19:32:00,
2013-06-27 15:37:00,82.0,72.9,29.66,East,82,0.0,2.0,74,0.00,,,0.01,510.00,VWS V14.00,2013-06-27 19:37:00,
2013-06-27 15:42:00,82.1,72.6,29.66,East,90,2.0,5.0,73,0.00,,,0.01,371.00,VWS V14.00,2013-06-27 19:42:00,
2013-06-27 15:47:00,82.1,72.6,29.66,East,95,1.0,1.0,73,0.00,,,0.01,436.00,VWS V14.00,2013-06-27 19:47:00,
2013-06-27 15:52:00,82.1,72.6,29.66,East,94,0.0,1.0,73,0.00,,,0.01,524.00,VWS V14.00,2013-06-27 19:52:00,
2013-06-27 15:57:00,82.2,72.3,29.66,East,98,0.0,1.0,72,0.00,,,0.01,454.00,VWS V14.00,2013-06-27 19:57:00,
2013-06-27 16:02:00,82.3,72.0,29.67,ESE,110,0.0,3.0,71,0.00,,,0.01,687.00,VWS V14.00,2013-06-27 20:02:00,
2013-06-27 16:07:00,82.6,72.7,29.66,ESE,119,0.0,1.0,72,0.00,,,0.01,677.00,VWS V14.00,2013-06-27 20:07:00,
2013-06-27 16:12:00,82.8,72.4,29.66,ESE,108,0.0,2.0,71,0.00,,,0.01,545.00,VWS V14.00,2013-06-27 20:12:00,
2013-06-27 16:17:00,82.9,72.5,29.66,ESE,115,0.0,4.0,71,0.00,,,0.01,357.00,VWS V14.00,2013-06-27 20:17:00,
2013-06-27 16:22:00,82.6,71.8,29.66,SE,134,0.0,4.0,70,0.00,,,0.01,422.00,VWS V14.00,2013-06-27 20:22:00,
2013-06-27 16:27:00,82.3,71.1,29.66,SE,141,1.0,1.0,69,0.00,,,0.01,360.00,VWS V14.00,2013-06-27 20:27:00,
2013-06-27 16:32:00,82.1,71.3,29.66,SSE,163,0.0,3.0,70,0.00,,,0.01,306.00,VWS V14.00,2013-06-27 20:32:00,
2013-06-27 16:37:00,82.0,72.1,29.66,SE,136,0.0,1.0,72,0.00,,,0.01,311.00,VWS V14.00,2013-06-27 20:37:00,
2013-06-27 16:43:00,81.7,72.2,29.65,SE,138,0.0,2.0,73,0.00,,,0.01,301.00,VWS V14.00,2013-06-27 20:43:00,
2013-06-27 16:48:00,81.4,72.3,29.65,ESE,116,0.0,5.0,74,0.00,,,0.01,267.00,VWS V14.00,2013-06-27 20:48:00,
2013-06-27 16:53:00,81.1,72.4,29.65,ESE,115,2.0,3.0,75,0.00,,,0.01,257.00,VWS V14.00,2013-06-27 20:53:00,
2013-06-27 16:58:00,81.0,72.3,29.65,ESE,115,0.0,1.0,75,0.00,,,0.01,267.00,VWS V14.00,2013-06-27 20:58:00,
2013-06-27 17:03:00,80.7,72.0,29.65,ESE,116,1.0,2.0,75,0.00,,,0.01,257.00,VWS V14.00,2013-06-27 21:03:00,
2013-06-27 17:08:00,80.5,71.5,29.65,ESE,115,0.0,1.0,74,0.00,,,0.01,239.00,VWS V14.00,2013-06-27 21:08:00,
2013-06-27 17:13:00,80.3,71.7,29.65,ESE,115,0.0,2.0,75,0.00,,,0.01,225.00,VWS V14.00,2013-06-27 21:13:00,
2013-06-27 17:18:00,80.3,71.7,29.65,ESE,115,2.0,2.0,75,0.00,,,0.01,211.00,VWS V14.00,2013-06-27 21:18:00,
2013-06-27 17:23:00,80.2,71.6,29.65,ESE,115,0.0,0.0,75,0.00,,,0.01,202.00,VWS V14.00,2013-06-27 21:23:00,
2013-06-27 17:28:00,80.1,71.5,29.66,ESE,115,1.0,3.0,75,0.00,,,0.01,200.00,VWS V14.00,2013-06-27 21:28:00,
2013-06-27 17:33:00,79.8,71.2,29.66,ESE,115,0.0,2.0,75,0.00,,,0.01,190.00,VWS V14.00,2013-06-27 21:33:00,
2013-06-27 17:38:00,79.5,71.3,29.65,ESE,115,0.0,3.0,76,0.00,,,0.01,167.00,VWS V14.00,2013-06-27 21:38:00,
2013-06-27 17:43:00,79.4,70.8,29.65,East,96,2.0,3.0,75,0.00,,,0.01,163.00,VWS V14.00,2013-06-27 21:43:00,
2013-06-27 17:48:00,79.2,71.0,29.65,ESE,119,0.0,3.0,76,0.00,,,0.01,165.00,VWS V14.00,2013-06-27 21:48:00,
2013-06-27 17:53:00,78.9,70.7,29.65,ESE,120,0.0,0.0,76,0.00,,,0.01,167.00,VWS V14.00,2013-06-27 21:53:00,
2013-06-27 17:58:00,78.8,71.0,29.65,ESE,119,1.0,1.0,77,0.00,,,0.01,163.00,VWS V14.00,2013-06-27 21:58:00,
2013-06-27 18:03:00,78.7,71.3,29.65,ESE,120,0.0,1.0,78,0.00,,,0.01,163.00,VWS V14.00,2013-06-27 22:03:00,
2013-06-27 18:08:00,78.5,71.4,29.66,SE,127,0.0,3.0,79,0.00,,,0.01,171.00,VWS V14.00,2013-06-27 22:08:00,
2013-06-27 18:14:00,78.4,71.7,29.66,SE,126,0.0,0.0,80,0.00,,,0.01,174.00,VWS V14.00,2013-06-27 22:14:00,
2013-06-27 18:19:00,78.2,71.2,29.67,SE,126,0.0,0.0,79,0.00,,,0.01,163.00,VWS V14.00,2013-06-27 22:19:00,
2013-06-27 18:24:00,77.8,70.0,29.67,ENE,61,0.0,5.0,77,0.00,,,0.01,148.00,VWS V14.00,2013-06-27 22:24:00,
2013-06-27 18:55:00,76.4,69.0,29.67,East,96,0.0,2.0,78,0.00,,,0.01,65.00,VWS V14.00,2013-06-27 22:55:00,
2013-06-27 19:00:00,76.2,68.8,29.67,East,96,0.0,0.0,78,0.00,,,0.01,63.00,VWS V14.00,2013-06-27 23:00:00,
2013-06-27 19:05:00,76.1,68.8,29.67,East,96,0.0,1.0,78,0.00,,,0.01,60.00,VWS V14.00,2013-06-27 23:05:00,
2013-06-27 19:10:00,75.9,68.9,29.67,East,96,0.0,0.0,79,0.00,,,0.01,53.00,VWS V14.00,2013-06-27 23:10:00,
2013-06-27 19:27:00,75.3,68.7,29.67,NE,49,0.0,2.0,80,0.00,,,0.01,23.00,VWS V14.00,2013-06-27 23:27:00,
2013-06-27 19:32:00,75.1,68.5,29.67,ENE,66,0.0,1.0,80,0.00,,,0.01,23.00,VWS V14.00,2013-06-27 23:32:00,
2013-06-27 19:37:00,74.9,68.3,29.67,ENE,60,1.0,1.0,80,0.00,,,0.01,33.00,VWS V14.00,2013-06-27 23:37:00,
2013-06-27 19:42:00,74.7,68.1,29.67,NNW,338,0.0,0.0,80,0.00,,,0.01,37.00,VWS V14.00,2013-06-27 23:42:00,
2013-06-27 19:47:00,74.5,67.9,29.67,NNW,339,0.0,0.0,80,0.00,,,0.01,33.00,VWS V14.00,2013-06-27 23:47:00,
2013-06-27 19:52:00,74.3,67.7,29.67,NNW,344,0.0,2.0,80,0.00,,,0.01,35.00,VWS V14.00,2013-06-27 23:52:00,
2013-06-27 19:57:00,74.1,67.5,29.67,ENE,57,2.0,4.0,80,0.00,,,0.01,33.00,VWS V14.00,2013-06-27 23:57:00,
2013-06-27 20:02:00,73.8,67.2,29.67,NE,49,0.0,1.0,80,0.00,,,0.01,30.00,VWS V14.00,2013-06-28 00:02:00,
2013-06-27 20:07:00,73.7,67.2,29.67,NE,49,0.0,0.0,80,0.00,,,0.01,25.00,VWS V14.00,2013-06-28 00:07:00,
2013-06-27 20:12:00,73.6,67.1,29.67,North,5,0.0,2.0,80,0.00,,,0.01,19.00,VWS V14.00,2013-06-28 00:12:00,
2013-06-27 20:18:00,73.5,67.0,29.67,North,355,0.0,1.0,80,0.00,,,0.01,14.00,VWS V14.00,2013-06-28 00:18:00,
2013-06-27 20:23:00,73.3,66.8,29.67,North,360,1.0,2.0,80,0.00,,,0.01,11.00,VWS V14.00,2013-06-28 00:23:00,
2013-06-27 20:28:00,73.1,66.6,29.67,North,350,1.0,5.0,80,0.00,,,0.01,7.00,VWS V14.00,2013-06-28 00:28:00,
2013-06-27 20:33:00,72.8,66.3,29.67,NNE,15,0.0,2.0,80,0.00,,,0.01,5.00,VWS V14.00,2013-06-28 00:33:00,
2013-06-27 20:38:00,72.7,66.5,29.67,NNE,15,0.0,2.0,81,0.00,,,0.01,0.00,VWS V14.00,2013-06-28 00:38:00,
2013-06-27 20:43:00,72.5,66.3,29.67,NNE,14,0.0,1.0,81,0.00,,,0.01,0.00,VWS V14.00,2013-06-28 00:43:00,
2013-06-27 20:48:00,72.3,66.2,29.67,North,11,0.0,4.0,81,0.00,,,0.01,0.00,VWS V14.00,2013-06-28 00:48:00,
2013-06-27 20:53:00,72.0,65.9,29.67,North,10,0.0,4.0,81,0.00,,,0.01,0.00,VWS V14.00,2013-06-28 00:53:00,
2013-06-27 20:58:00,71.7,65.6,29.67,NNW,340,3.0,5.0,81,0.00,,,0.01,0.00,VWS V14.00,2013-06-28 00:58:00,
2013-06-27 21:03:00,71.5,65.7,29.67,North,355,0.0,4.0,82,0.00,,,0.01,0.00,VWS V14.00,2013-06-28 01:03:00,
2013-06-27 21:08:00,71.3,65.5,29.68,North,355,0.0,0.0,82,0.00,,,0.01,0.00,VWS V14.00,2013-06-28 01:08:00,
2013-06-27 21:13:00,71.1,65.3,29.67,North,355,0.0,2.0,82,0.00,,,0.01,0.00,VWS V14.00,2013-06-28 01:13:00,
2013-06-27 21:18:00,70.9,65.5,29.67,North,355,0.0,0.0,83,0.00,,,0.01,0.00,VWS V14.00,2013-06-28 01:18:00,
2013-06-27 21:24:00,70.7,65.3,29.68,North,355,0.0,1.0,83,0.00,,,0.01,0.00,VWS V14.00,2013-06-28 01:24:00,
2013-06-27 21:29:00,70.6,65.5,29.68,North,355,0.0,0.0,84,0.00,,,0.01,0.00,VWS V14.00,2013-06-28 01:29:00,
2013-06-27 21:34:00,70.5,65.4,29.67,North,355,0.0,1.0,84,0.00,,,0.01,0.00,VWS V14.00,2013-06-28 01:34:00,
2013-06-27 21:39:00,70.3,65.2,29.67,North,355,0.0,2.0,84,0.00,,,0.01,0.00,VWS V14.00,2013-06-28 01:39:00,
2013-06-27 21:44:00,70.2,65.1,29.67,NNW,337,0.0,4.0,84,0.00,,,0.01,0.00,VWS V14.00,2013-06-28 01:44:00,
2013-06-27 21:49:00,70.1,65.4,29.67,NNW,343,2.0,2.0,85,0.00,,,0.01,0.00,VWS V14.00,2013-06-28 01:49:00,
2013-06-27 21:54:00,69.9,65.2,29.67,NNW,343,0.0,2.0,85,0.00,,,0.01,0.00,VWS V14.00,2013-06-28 01:54:00,
2013-06-27 22:00:00,69.9,65.2,29.67,NNW,343,0.0,1.0,85,0.00,,,0.01,0.00,VWS V14.00,2013-06-28 02:00:00,
2013-06-27 22:05:00,69.8,64.8,29.67,NNW,343,0.0,2.0,84,0.00,,,0.01,0.00,VWS V14.00,2013-06-28 02:05:00,
2013-06-27 22:10:00,69.7,64.7,29.67,North,355,0.0,3.0,84,0.00,,,0.01,0.00,VWS V14.00,2013-06-28 02:10:00,
2013-06-27 22:15:00,69.7,65.0,29.67,North,5,0.0,3.0,85,0.00,,,0.01,0.00,VWS V14.00,2013-06-28 02:15:00,
2013-06-27 22:20:00,69.8,65.1,29.67,North,9,0.0,3.0,85,0.01,,,0.02,0.00,VWS V14.00,2013-06-28 02:20:00,
2013-06-27 22:25:00,69.7,65.0,29.67,North,9,0.0,2.0,85,0.01,,,0.02,0.00,VWS V14.00,2013-06-28 02:25:00,
2013-06-27 22:30:00,69.7,65.0,29.67,North,9,0.0,1.0,85,0.01,,,0.02,0.00,VWS V14.00,2013-06-28 02:30:00,
2013-06-27 22:35:00,69.7,65.0,29.67,North,9,0.0,1.0,85,0.02,,,0.03,0.00,VWS V14.00,2013-06-28 02:35:00,
2013-06-27 22:41:00,69.6,65.2,29.67,North,9,0.0,3.0,86,0.02,,,0.03,0.00,VWS V14.00,2013-06-28 02:41:00,
2013-06-27 22:46:00,69.4,65.0,29.67,North,5,0.0,3.0,86,0.03,,,0.04,0.00,VWS V14.00,2013-06-28 02:46:00,
2013-06-27 22:51:00,69.3,64.9,29.67,North,5,0.0,3.0,86,0.03,,,0.04,0.00,VWS V14.00,2013-06-28 02:51:00,
2013-06-27 22:56:00,69.1,65.1,29.67,North,5,0.0,0.0,87,0.03,,,0.04,0.00,VWS V14.00,2013-06-28 02:56:00,
2013-06-27 23:01:00,68.9,64.9,29.67,North,5,0.0,0.0,87,0.04,,,0.05,0.00,VWS V14.00,2013-06-28 03:01:00,
2013-06-27 23:06:00,68.7,64.7,29.67,North,5,0.0,0.0,87,0.05,,,0.06,0.00,VWS V14.00,2013-06-28 03:06:00,
2013-06-27 23:11:00,68.6,64.6,29.66,North,5,0.0,0.0,87,0.05,,,0.06,0.00,VWS V14.00,2013-06-28 03:11:00,
2013-06-27 23:16:00,68.5,64.8,29.66,North,5,0.0,0.0,88,0.06,,,0.07,0.00,VWS V14.00,2013-06-28 03:16:00,
2013-06-27 23:21:00,68.4,64.7,29.67,North,5,0.0,0.0,88,0.06,,,0.08,0.00,VWS V14.00,2013-06-28 03:21:00,
2013-06-27 23:26:00,68.3,64.9,29.66,North,5,0.0,0.0,89,0.06,,,0.08,0.00,VWS V14.00,2013-06-28 03:26:00,
2013-06-27 23:31:00,68.1,64.7,29.66,North,5,0.0,1.0,89,0.08,,,0.10,0.00,VWS V14.00,2013-06-28 03:31:00,
2013-06-27 23:36:00,67.9,64.5,29.66,North,5,0.0,0.0,89,0.08,,,0.11,0.00,VWS V14.00,2013-06-28 03:36:00,
2013-06-27 23:42:00,67.8,64.4,29.66,North,5,0.0,0.0,89,0.09,,,0.12,0.00,VWS V14.00,2013-06-28 03:42:00,
2013-06-27 23:47:00,67.6,64.6,29.66,North,5,0.0,0.0,90,0.09,,,0.13,0.00,VWS V14.00,2013-06-28 03:47:00,
2013-06-27 23:52:00,67.5,64.5,29.66,North,5,0.0,0.0,90,0.10,,,0.14,0.00,VWS V14.00,2013-06-28 03:52:00,
2013-06-27 23:57:00,67.4,64.4,29.66,North,5,0.0,0.0,90,0.11,,,0.15,0.00,VWS V14.00,2013-06-28 03:57:00,